sensor_id;sensor_type;location;lat;lon;timestamp;temperature;humidity
22635;DHT22;11484;50.858;4.384;2022-10-16T00:01:36;15.60;99.90
22635;DHT22;11484;50.858;4.384;2022-10-16T00:04:02;15.60;99.90
22635;DHT22;11484;50.858;4.384;2022-10-16T00:06:29;15.60;99.90
22635;DHT22;11484;50.858;4.384;2022-10-16T00:08:56;15.60;99.90
22635;DHT22;11484;50.858;4.384;2022-10-16T00:11:24;15.60;99.90
22635;DHT22;11484;50.858;4.384;2022-10-16T00:13:52;15.60;99.90
22635;DHT22;11484;50.858;4.384;2022-10-16T00:16:20;15.50;99.90
22635;DHT22;11484;50.858;4.384;2022-10-16T00:18:46;15.50;99.90
22635;DHT22;11484;50.858;4.384;2022-10-16T00:21:19;15.50;99.90
22635;DHT22;11484;50.858;4.384;2022-10-16T00:23:45;15.50;99.90
22635;DHT22;11484;50.858;4.384;2022-10-16T00:26:16;15.50;99.90
22635;DHT22;11484;50.858;4.384;2022-10-16T00:28:41;15.50;99.90
22635;DHT22;11484;50.858;4.384;2022-10-16T00:31:09;15.40;99.90
22635;DHT22;11484;50.858;4.384;2022-10-16T00:33:37;15.30;99.90
22635;DHT22;11484;50.858;4.384;2022-10-16T00:36:03;15.30;99.90
22635;DHT22;11484;50.858;4.384;2022-10-16T00:38:30;15.20;99.90
22635;DHT22;11484;50.858;4.384;2022-10-16T00:40:56;15.20;99.90
22635;DHT22;11484;50.858;4.384;2022-10-16T00:48:55;15.30;99.90
22635;DHT22;11484;50.858;4.384;2022-10-16T00:51:25;15.30;99.90
22635;DHT22;11484;50.858;4.384;2022-10-16T00:53:54;15.30;99.90
22635;DHT22;11484;50.858;4.384;2022-10-16T00:56:20;15.30;99.90
22635;DHT22;11484;50.858;4.384;2022-10-16T00:58:46;15.30;99.90
22635;DHT22;11484;50.858;4.384;2022-10-16T01:01:12;15.20;99.90
22635;DHT22;11484;50.858;4.384;2022-10-16T01:03:38;15.10;99.90
22635;DHT22;11484;50.858;4.384;2022-10-16T01:09:16;15.20;99.90
22635;DHT22;11484;50.858;4.384;2022-10-16T01:11:57;15.20;99.90
22635;DHT22;11484;50.858;4.384;2022-10-16T01:14:39;15.20;99.90
22635;DHT22;11484;50.858;4.384;2022-10-16T01:19:50;15.10;99.90
22635;DHT22;11484;50.858;4.384;2022-10-16T01:22:19;15.20;99.90
22635;DHT22;11484;50.858;4.384;2022-10-16T01:24:49;15.20;99.90
22635;DHT22;11484;50.858;4.384;2022-10-16T01:29:54;15.10;99.90
22635;DHT22;11484;50.858;4.384;2022-10-16T01:32:50;15.00;99.90
22635;DHT22;11484;50.858;4.384;2022-10-16T01:35:25;15.00;99.90
22635;DHT22;11484;50.858;4.384;2022-10-16T01:40:20;15.00;99.90
22635;DHT22;11484;50.858;4.384;2022-10-16T01:42:53;15.10;99.90
22635;DHT22;11484;50.858;4.384;2022-10-16T01:45:21;15.20;99.90
22635;DHT22;11484;50.858;4.384;2022-10-16T01:47:49;15.30;99.90
22635;DHT22;11484;50.858;4.384;2022-10-16T01:50:17;15.30;99.90
22635;DHT22;11484;50.858;4.384;2022-10-16T01:52:46;15.30;99.90
22635;DHT22;11484;50.858;4.384;2022-10-16T01:55:17;15.30;99.90
22635;DHT22;11484;50.858;4.384;2022-10-16T01:57:47;15.20;99.90
22635;DHT22;11484;50.858;4.384;2022-10-16T02:00:17;15.10;99.90
22635;DHT22;11484;50.858;4.384;2022-10-16T02:02:47;15.10;99.90
22635;DHT22;11484;50.858;4.384;2022-10-16T02:05:28;15.10;99.90
22635;DHT22;11484;50.858;4.384;2022-10-16T02:07:56;15.20;99.90
22635;DHT22;11484;50.858;4.384;2022-10-16T02:10:23;15.20;99.90
22635;DHT22;11484;50.858;4.384;2022-10-16T02:12:56;15.20;99.90
22635;DHT22;11484;50.858;4.384;2022-10-16T02:15:24;15.20;99.90
22635;DHT22;11484;50.858;4.384;2022-10-16T02:17:49;15.10;99.90
22635;DHT22;11484;50.858;4.384;2022-10-16T02:20:15;15.00;99.90
22635;DHT22;11484;50.858;4.384;2022-10-16T02:22:47;15.00;99.90
22635;DHT22;11484;50.858;4.384;2022-10-16T02:25:34;14.90;99.90
22635;DHT22;11484;50.858;4.384;2022-10-16T02:30:58;15.00;99.90
22635;DHT22;11484;50.858;4.384;2022-10-16T02:33:26;15.20;99.90
22635;DHT22;11484;50.858;4.384;2022-10-16T02:35:54;15.30;99.90
22635;DHT22;11484;50.858;4.384;2022-10-16T02:38:23;15.20;99.90
22635;DHT22;11484;50.858;4.384;2022-10-16T02:40:50;15.20;99.90
22635;DHT22;11484;50.858;4.384;2022-10-16T02:43:16;15.10;99.90
22635;DHT22;11484;50.858;4.384;2022-10-16T02:45:42;15.10;99.90
22635;DHT22;11484;50.858;4.384;2022-10-16T02:48:08;15.00;99.90
22635;DHT22;11484;50.858;4.384;2022-10-16T02:50:34;15.00;99.90
22635;DHT22;11484;50.858;4.384;2022-10-16T02:52:59;14.90;99.90
22635;DHT22;11484;50.858;4.384;2022-10-16T02:55:25;14.90;99.90
22635;DHT22;11484;50.858;4.384;2022-10-16T02:57:53;14.90;99.90
22635;DHT22;11484;50.858;4.384;2022-10-16T03:00:19;14.80;99.90
22635;DHT22;11484;50.858;4.384;2022-10-16T03:02:45;14.90;99.90
22635;DHT22;11484;50.858;4.384;2022-10-16T03:05:13;14.90;99.90
22635;DHT22;11484;50.858;4.384;2022-10-16T03:07:39;14.80;99.90
22635;DHT22;11484;50.858;4.384;2022-10-16T03:10:05;14.90;99.90
22635;DHT22;11484;50.858;4.384;2022-10-16T03:12:31;14.90;99.90
22635;DHT22;11484;50.858;4.384;2022-10-16T03:14:57;15.00;99.90
22635;DHT22;11484;50.858;4.384;2022-10-16T03:17:24;15.00;99.90
22635;DHT22;11484;50.858;4.384;2022-10-16T03:19:49;14.90;99.90
22635;DHT22;11484;50.858;4.384;2022-10-16T03:22:15;14.90;99.90
22635;DHT22;11484;50.858;4.384;2022-10-16T03:24:41;14.90;99.90
22635;DHT22;11484;50.858;4.384;2022-10-16T03:27:13;14.80;99.90
22635;DHT22;11484;50.858;4.384;2022-10-16T03:29:38;14.90;99.90
22635;DHT22;11484;50.858;4.384;2022-10-16T03:32:04;14.90;99.90
22635;DHT22;11484;50.858;4.384;2022-10-16T03:34:30;14.90;99.90
22635;DHT22;11484;50.858;4.384;2022-10-16T03:36:55;14.90;99.90
22635;DHT22;11484;50.858;4.384;2022-10-16T03:39:23;14.80;99.90
22635;DHT22;11484;50.858;4.384;2022-10-16T03:41:48;14.90;99.90
22635;DHT22;11484;50.858;4.384;2022-10-16T03:44:14;14.90;99.90
22635;DHT22;11484;50.858;4.384;2022-10-16T03:46:40;14.90;99.90
22635;DHT22;11484;50.858;4.384;2022-10-16T03:49:06;15.00;99.90
22635;DHT22;11484;50.858;4.384;2022-10-16T03:51:32;15.00;99.90
22635;DHT22;11484;50.858;4.384;2022-10-16T03:53:57;15.00;99.90
22635;DHT22;11484;50.858;4.384;2022-10-16T03:56:23;15.00;99.90
22635;DHT22;11484;50.858;4.384;2022-10-16T03:58:49;15.00;99.90
22635;DHT22;11484;50.858;4.384;2022-10-16T04:01:14;15.00;99.90
22635;DHT22;11484;50.858;4.384;2022-10-16T04:03:40;15.00;99.90
22635;DHT22;11484;50.858;4.384;2022-10-16T04:06:06;15.00;99.90
22635;DHT22;11484;50.858;4.384;2022-10-16T04:08:32;15.10;99.90
22635;DHT22;11484;50.858;4.384;2022-10-16T04:11:00;15.00;99.90
22635;DHT22;11484;50.858;4.384;2022-10-16T04:13:26;14.90;99.90
22635;DHT22;11484;50.858;4.384;2022-10-16T04:15:52;14.90;99.90
22635;DHT22;11484;50.858;4.384;2022-10-16T04:18:18;14.80;99.90
22635;DHT22;11484;50.858;4.384;2022-10-16T04:20:43;14.80;99.90
22635;DHT22;11484;50.858;4.384;2022-10-16T04:23:09;14.80;99.90
22635;DHT22;11484;50.858;4.384;2022-10-16T04:25:35;14.80;99.90
22635;DHT22;11484;50.858;4.384;2022-10-16T04:28:01;14.80;99.90
22635;DHT22;11484;50.858;4.384;2022-10-16T04:30:26;14.80;99.90
22635;DHT22;11484;50.858;4.384;2022-10-16T04:32:52;14.80;99.90
22635;DHT22;11484;50.858;4.384;2022-10-16T04:35:20;14.80;99.90
22635;DHT22;11484;50.858;4.384;2022-10-16T04:37:46;14.90;99.90
22635;DHT22;11484;50.858;4.384;2022-10-16T04:40:12;14.90;99.90
22635;DHT22;11484;50.858;4.384;2022-10-16T04:42:39;14.90;99.90
22635;DHT22;11484;50.858;4.384;2022-10-16T04:45:07;14.90;99.90
22635;DHT22;11484;50.858;4.384;2022-10-16T04:47:33;15.00;99.90
22635;DHT22;11484;50.858;4.384;2022-10-16T04:49:59;14.90;99.90
22635;DHT22;11484;50.858;4.384;2022-10-16T04:52:28;15.00;99.90
22635;DHT22;11484;50.858;4.384;2022-10-16T04:54:54;15.00;99.90
22635;DHT22;11484;50.858;4.384;2022-10-16T04:57:20;14.90;99.90
22635;DHT22;11484;50.858;4.384;2022-10-16T04:59:46;14.80;99.90
22635;DHT22;11484;50.858;4.384;2022-10-16T05:02:12;14.80;99.90
22635;DHT22;11484;50.858;4.384;2022-10-16T05:04:38;14.70;99.90
22635;DHT22;11484;50.858;4.384;2022-10-16T05:07:05;14.70;99.90
22635;DHT22;11484;50.858;4.384;2022-10-16T05:09:30;14.80;99.90
22635;DHT22;11484;50.858;4.384;2022-10-16T05:11:56;14.80;99.90
22635;DHT22;11484;50.858;4.384;2022-10-16T05:14:22;14.80;99.90
22635;DHT22;11484;50.858;4.384;2022-10-16T05:16:47;14.80;99.90
22635;DHT22;11484;50.858;4.384;2022-10-16T05:19:13;14.80;99.90
22635;DHT22;11484;50.858;4.384;2022-10-16T05:21:39;14.70;99.90
22635;DHT22;11484;50.858;4.384;2022-10-16T05:24:05;14.60;99.90
22635;DHT22;11484;50.858;4.384;2022-10-16T05:26:30;14.60;99.90
22635;DHT22;11484;50.858;4.384;2022-10-16T05:28:56;14.60;99.90
22635;DHT22;11484;50.858;4.384;2022-10-16T05:31:22;14.60;99.90
22635;DHT22;11484;50.858;4.384;2022-10-16T05:33:48;14.60;99.90
22635;DHT22;11484;50.858;4.384;2022-10-16T05:36:14;14.50;99.90
22635;DHT22;11484;50.858;4.384;2022-10-16T05:38:39;14.50;99.90
22635;DHT22;11484;50.858;4.384;2022-10-16T05:41:05;14.50;99.90
22635;DHT22;11484;50.858;4.384;2022-10-16T05:43:31;14.50;99.90
22635;DHT22;11484;50.858;4.384;2022-10-16T05:46:07;14.50;99.90
22635;DHT22;11484;50.858;4.384;2022-10-16T05:48:33;14.50;99.90
22635;DHT22;11484;50.858;4.384;2022-10-16T05:51:04;14.50;99.90
22635;DHT22;11484;50.858;4.384;2022-10-16T05:53:32;14.40;99.90
22635;DHT22;11484;50.858;4.384;2022-10-16T05:55:58;14.40;99.90
22635;DHT22;11484;50.858;4.384;2022-10-16T05:58:25;14.40;99.90
22635;DHT22;11484;50.858;4.384;2022-10-16T06:03:20;14.40;99.90
22635;DHT22;11484;50.858;4.384;2022-10-16T06:05:46;14.40;99.90
22635;DHT22;11484;50.858;4.384;2022-10-16T06:08:12;14.40;99.90
22635;DHT22;11484;50.858;4.384;2022-10-16T06:10:37;14.40;99.90
22635;DHT22;11484;50.858;4.384;2022-10-16T06:13:03;14.40;99.90
22635;DHT22;11484;50.858;4.384;2022-10-16T06:15:29;14.40;99.90
22635;DHT22;11484;50.858;4.384;2022-10-16T06:17:55;14.40;99.90
22635;DHT22;11484;50.858;4.384;2022-10-16T06:20:21;14.40;99.90
22635;DHT22;11484;50.858;4.384;2022-10-16T06:22:47;14.40;99.90
22635;DHT22;11484;50.858;4.384;2022-10-16T06:25:12;14.40;99.90
22635;DHT22;11484;50.858;4.384;2022-10-16T06:27:41;14.50;99.90
22635;DHT22;11484;50.858;4.384;2022-10-16T06:30:07;14.50;99.90
22635;DHT22;11484;50.858;4.384;2022-10-16T06:32:33;14.60;99.90
22635;DHT22;11484;50.858;4.384;2022-10-16T06:34:59;14.60;99.90
22635;DHT22;11484;50.858;4.384;2022-10-16T06:37:25;14.60;99.90
22635;DHT22;11484;50.858;4.384;2022-10-16T06:39:51;14.60;99.90
22635;DHT22;11484;50.858;4.384;2022-10-16T06:42:19;14.70;99.90
22635;DHT22;11484;50.858;4.384;2022-10-16T06:44:45;14.80;99.90
22635;DHT22;11484;50.858;4.384;2022-10-16T06:47:11;14.90;99.90
22635;DHT22;11484;50.858;4.384;2022-10-16T06:49:38;14.90;99.90
22635;DHT22;11484;50.858;4.384;2022-10-16T06:52:04;15.10;99.90
22635;DHT22;11484;50.858;4.384;2022-10-16T06:54:30;15.20;99.90
22635;DHT22;11484;50.858;4.384;2022-10-16T06:56:56;15.30;99.90
22635;DHT22;11484;50.858;4.384;2022-10-16T06:59:22;15.50;99.90
22635;DHT22;11484;50.858;4.384;2022-10-16T07:01:47;15.50;99.90
22635;DHT22;11484;50.858;4.384;2022-10-16T07:04:13;15.60;99.90
22635;DHT22;11484;50.858;4.384;2022-10-16T07:06:39;15.60;99.90
22635;DHT22;11484;50.858;4.384;2022-10-16T07:09:07;15.60;99.90
22635;DHT22;11484;50.858;4.384;2022-10-16T07:11:34;15.60;99.90
22635;DHT22;11484;50.858;4.384;2022-10-16T07:14:03;15.60;99.90
22635;DHT22;11484;50.858;4.384;2022-10-16T07:16:31;15.60;99.90
22635;DHT22;11484;50.858;4.384;2022-10-16T07:18:59;15.60;99.90
22635;DHT22;11484;50.858;4.384;2022-10-16T07:21:27;15.50;99.90
22635;DHT22;11484;50.858;4.384;2022-10-16T07:23:58;15.50;99.90
22635;DHT22;11484;50.858;4.384;2022-10-16T07:26:25;15.50;99.90
22635;DHT22;11484;50.858;4.384;2022-10-16T07:28:51;15.50;99.90
22635;DHT22;11484;50.858;4.384;2022-10-16T07:31:21;15.50;99.90
22635;DHT22;11484;50.858;4.384;2022-10-16T07:33:48;15.50;99.90
22635;DHT22;11484;50.858;4.384;2022-10-16T07:36:16;15.60;99.90
22635;DHT22;11484;50.858;4.384;2022-10-16T07:38:43;15.60;99.90
22635;DHT22;11484;50.858;4.384;2022-10-16T07:41:14;15.70;99.90
22635;DHT22;11484;50.858;4.384;2022-10-16T07:43:48;15.70;99.90
22635;DHT22;11484;50.858;4.384;2022-10-16T07:46:15;15.70;99.90
22635;DHT22;11484;50.858;4.384;2022-10-16T07:48:43;15.70;99.90
22635;DHT22;11484;50.858;4.384;2022-10-16T07:51:16;15.80;99.90
22635;DHT22;11484;50.858;4.384;2022-10-16T07:53:43;15.80;99.90
22635;DHT22;11484;50.858;4.384;2022-10-16T07:56:09;15.80;99.90
22635;DHT22;11484;50.858;4.384;2022-10-16T07:58:35;15.80;99.90
22635;DHT22;11484;50.858;4.384;2022-10-16T08:01:08;15.90;99.90
22635;DHT22;11484;50.858;4.384;2022-10-16T08:03:34;15.90;99.90
22635;DHT22;11484;50.858;4.384;2022-10-16T08:06:00;15.90;99.90
22635;DHT22;11484;50.858;4.384;2022-10-16T08:08:27;15.90;99.90
22635;DHT22;11484;50.858;4.384;2022-10-16T08:10:53;15.80;99.90
22635;DHT22;11484;50.858;4.384;2022-10-16T08:13:19;15.90;99.90
22635;DHT22;11484;50.858;4.384;2022-10-16T08:15:46;16.00;99.90
22635;DHT22;11484;50.858;4.384;2022-10-16T08:18:13;16.10;99.90
22635;DHT22;11484;50.858;4.384;2022-10-16T08:20:42;16.20;99.90
22635;DHT22;11484;50.858;4.384;2022-10-16T08:23:11;16.20;99.90
22635;DHT22;11484;50.858;4.384;2022-10-16T08:25:39;16.10;99.90
22635;DHT22;11484;50.858;4.384;2022-10-16T08:28:10;16.10;99.90
22635;DHT22;11484;50.858;4.384;2022-10-16T08:30:36;16.20;99.90
22635;DHT22;11484;50.858;4.384;2022-10-16T08:33:02;16.30;99.90
22635;DHT22;11484;50.858;4.384;2022-10-16T08:35:28;16.50;99.90
22635;DHT22;11484;50.858;4.384;2022-10-16T08:37:54;16.60;99.90
22635;DHT22;11484;50.858;4.384;2022-10-16T08:40:23;16.70;99.90
22635;DHT22;11484;50.858;4.384;2022-10-16T08:43:00;16.80;99.90
22635;DHT22;11484;50.858;4.384;2022-10-16T08:48:46;16.90;99.90
22635;DHT22;11484;50.858;4.384;2022-10-16T08:51:25;16.90;99.90
22635;DHT22;11484;50.858;4.384;2022-10-16T08:53:53;17.00;99.90
22635;DHT22;11484;50.858;4.384;2022-10-16T08:56:21;17.00;99.90
22635;DHT22;11484;50.858;4.384;2022-10-16T08:58:47;17.10;99.90
22635;DHT22;11484;50.858;4.384;2022-10-16T09:01:15;17.20;99.90
22635;DHT22;11484;50.858;4.384;2022-10-16T09:06:54;17.30;99.90
22635;DHT22;11484;50.858;4.384;2022-10-16T09:12:26;17.20;99.90
22635;DHT22;11484;50.858;4.384;2022-10-16T09:14:58;17.30;99.90
22635;DHT22;11484;50.858;4.384;2022-10-16T09:22:43;17.60;99.90
22635;DHT22;11484;50.858;4.384;2022-10-16T09:25:16;17.90;99.90
22635;DHT22;11484;50.858;4.384;2022-10-16T09:27:45;18.10;99.90
22635;DHT22;11484;50.858;4.384;2022-10-16T09:30:13;18.40;99.90
22635;DHT22;11484;50.858;4.384;2022-10-16T09:32:41;18.70;99.90
22635;DHT22;11484;50.858;4.384;2022-10-16T09:35:14;18.90;99.90
22635;DHT22;11484;50.858;4.384;2022-10-16T09:37:43;19.10;99.90
22635;DHT22;11484;50.858;4.384;2022-10-16T09:40:24;19.50;99.90
22635;DHT22;11484;50.858;4.384;2022-10-16T09:42:56;19.90;99.90
22635;DHT22;11484;50.858;4.384;2022-10-16T09:45:23;20.00;99.90
22635;DHT22;11484;50.858;4.384;2022-10-16T09:47:49;20.20;99.90
22635;DHT22;11484;50.858;4.384;2022-10-16T09:50:27;20.20;99.90
22635;DHT22;11484;50.858;4.384;2022-10-16T09:53:10;20.10;99.90
22635;DHT22;11484;50.858;4.384;2022-10-16T09:55:47;20.00;99.90
22635;DHT22;11484;50.858;4.384;2022-10-16T09:58:13;20.00;99.90
22635;DHT22;11484;50.858;4.384;2022-10-16T10:00:41;19.90;99.90
22635;DHT22;11484;50.858;4.384;2022-10-16T10:03:11;19.70;99.90
22635;DHT22;11484;50.858;4.384;2022-10-16T10:05:39;19.50;99.90
22635;DHT22;11484;50.858;4.384;2022-10-16T10:08:06;19.50;99.90
22635;DHT22;11484;50.858;4.384;2022-10-16T10:10:41;19.50;99.90
22635;DHT22;11484;50.858;4.384;2022-10-16T10:13:20;19.60;99.90
22635;DHT22;11484;50.858;4.384;2022-10-16T10:15:47;19.40;99.90
22635;DHT22;11484;50.858;4.384;2022-10-16T10:18:18;19.40;99.90
22635;DHT22;11484;50.858;4.384;2022-10-16T10:20:45;19.40;99.90
22635;DHT22;11484;50.858;4.384;2022-10-16T10:23:22;19.40;99.90
22635;DHT22;11484;50.858;4.384;2022-10-16T10:26:08;19.20;99.90
22635;DHT22;11484;50.858;4.384;2022-10-16T10:36:41;19.30;99.90
22635;DHT22;11484;50.858;4.384;2022-10-16T10:39:29;19.40;99.90
22635;DHT22;11484;50.858;4.384;2022-10-16T10:42:21;19.40;99.90
22635;DHT22;11484;50.858;4.384;2022-10-16T10:50:25;19.60;99.90
22635;DHT22;11484;50.858;4.384;2022-10-16T10:53:10;19.70;99.90
22635;DHT22;11484;50.858;4.384;2022-10-16T10:58:26;19.90;99.90
22635;DHT22;11484;50.858;4.384;2022-10-16T11:06:59;19.70;99.90
22635;DHT22;11484;50.858;4.384;2022-10-16T11:09:34;19.70;99.90
22635;DHT22;11484;50.858;4.384;2022-10-16T11:12:19;19.60;99.90
22635;DHT22;11484;50.858;4.384;2022-10-16T11:15:01;19.60;99.90
22635;DHT22;11484;50.858;4.384;2022-10-16T11:17:33;19.70;99.90
22635;DHT22;11484;50.858;4.384;2022-10-16T11:20:32;19.90;99.90
22635;DHT22;11484;50.858;4.384;2022-10-16T11:23:14;19.80;99.90
22635;DHT22;11484;50.858;4.384;2022-10-16T11:25:43;19.70;99.90
22635;DHT22;11484;50.858;4.384;2022-10-16T11:28:23;19.70;99.90
22635;DHT22;11484;50.858;4.384;2022-10-16T11:31:08;19.60;99.90
22635;DHT22;11484;50.858;4.384;2022-10-16T11:47:33;20.30;99.90
22635;DHT22;11484;50.858;4.384;2022-10-16T11:50:23;20.00;99.90
22635;DHT22;11484;50.858;4.384;2022-10-16T11:52:57;19.70;99.90
22635;DHT22;11484;50.858;4.384;2022-10-16T11:55:35;19.60;99.90
22635;DHT22;11484;50.858;4.384;2022-10-16T11:58:07;19.50;99.90
22635;DHT22;11484;50.858;4.384;2022-10-16T12:00:41;19.60;99.90
22635;DHT22;11484;50.858;4.384;2022-10-16T12:03:38;19.80;99.90
22635;DHT22;11484;50.858;4.384;2022-10-16T12:06:20;20.20;99.90
22635;DHT22;11484;50.858;4.384;2022-10-16T12:08:51;20.50;99.90
22635;DHT22;11484;50.858;4.384;2022-10-16T12:14:05;20.70;99.90
22635;DHT22;11484;50.858;4.384;2022-10-16T12:16:31;20.80;99.90
22635;DHT22;11484;50.858;4.384;2022-10-16T12:19:11;20.90;99.90
22635;DHT22;11484;50.858;4.384;2022-10-16T12:21:37;20.90;99.90
22635;DHT22;11484;50.858;4.384;2022-10-16T12:24:03;20.60;99.90
22635;DHT22;11484;50.858;4.384;2022-10-16T12:26:37;20.50;99.90
22635;DHT22;11484;50.858;4.384;2022-10-16T12:29:32;20.40;99.90
22635;DHT22;11484;50.858;4.384;2022-10-16T12:31:58;20.50;99.90
22635;DHT22;11484;50.858;4.384;2022-10-16T12:34:28;20.70;99.90
22635;DHT22;11484;50.858;4.384;2022-10-16T12:36:55;20.90;99.90
22635;DHT22;11484;50.858;4.384;2022-10-16T12:39:23;21.00;99.90
22635;DHT22;11484;50.858;4.384;2022-10-16T12:42:02;21.10;99.90
22635;DHT22;11484;50.858;4.384;2022-10-16T12:44:33;21.10;99.90
22635;DHT22;11484;50.858;4.384;2022-10-16T12:47:00;21.10;99.90
22635;DHT22;11484;50.858;4.384;2022-10-16T12:49:36;21.00;99.90
22635;DHT22;11484;50.858;4.384;2022-10-16T12:52:03;20.70;99.90
22635;DHT22;11484;50.858;4.384;2022-10-16T12:54:39;20.60;99.90
22635;DHT22;11484;50.858;4.384;2022-10-16T12:57:34;20.70;99.90
22635;DHT22;11484;50.858;4.384;2022-10-16T13:03:08;21.00;99.90
22635;DHT22;11484;50.858;4.384;2022-10-16T13:17:18;20.90;99.90
22635;DHT22;11484;50.858;4.384;2022-10-16T13:28:06;21.30;99.90
22635;DHT22;11484;50.858;4.384;2022-10-16T13:30:53;21.10;99.90
22635;DHT22;11484;50.858;4.384;2022-10-16T13:33:37;20.80;99.90
22635;DHT22;11484;50.858;4.384;2022-10-16T13:36:05;20.60;99.90
22635;DHT22;11484;50.858;4.384;2022-10-16T13:38:34;20.40;99.90
22635;DHT22;11484;50.858;4.384;2022-10-16T13:41:17;20.40;99.90
22635;DHT22;11484;50.858;4.384;2022-10-16T13:43:51;20.40;99.90
22635;DHT22;11484;50.858;4.384;2022-10-16T13:46:19;20.50;99.90
22635;DHT22;11484;50.858;4.384;2022-10-16T13:49:01;20.70;99.90
22635;DHT22;11484;50.858;4.384;2022-10-16T13:51:27;20.80;99.90
22635;DHT22;11484;50.858;4.384;2022-10-16T13:53:55;20.90;99.90
22635;DHT22;11484;50.858;4.384;2022-10-16T13:56:22;21.00;99.90
22635;DHT22;11484;50.858;4.384;2022-10-16T13:59:01;20.90;99.90
22635;DHT22;11484;50.858;4.384;2022-10-16T14:01:41;20.90;99.90
22635;DHT22;11484;50.858;4.384;2022-10-16T14:04:10;20.90;99.90
22635;DHT22;11484;50.858;4.384;2022-10-16T14:06:40;21.00;99.90
22635;DHT22;11484;50.858;4.384;2022-10-16T14:09:14;21.10;99.90
22635;DHT22;11484;50.858;4.384;2022-10-16T14:11:54;21.00;99.90
22635;DHT22;11484;50.858;4.384;2022-10-16T14:14:20;20.90;99.90
22635;DHT22;11484;50.858;4.384;2022-10-16T14:16:47;20.90;99.90
22635;DHT22;11484;50.858;4.384;2022-10-16T14:19:21;21.00;99.90
22635;DHT22;11484;50.858;4.384;2022-10-16T14:21:49;20.80;99.90
22635;DHT22;11484;50.858;4.384;2022-10-16T14:24:33;20.80;99.90
22635;DHT22;11484;50.858;4.384;2022-10-16T14:27:00;21.00;99.90
22635;DHT22;11484;50.858;4.384;2022-10-16T14:29:28;21.00;99.90
22635;DHT22;11484;50.858;4.384;2022-10-16T14:32:04;20.80;99.90
22635;DHT22;11484;50.858;4.384;2022-10-16T14:34:35;20.80;99.90
22635;DHT22;11484;50.858;4.384;2022-10-16T14:37:09;20.80;99.90
22635;DHT22;11484;50.858;4.384;2022-10-16T14:39:39;20.90;99.90
22635;DHT22;11484;50.858;4.384;2022-10-16T14:42:14;21.00;99.90
22635;DHT22;11484;50.858;4.384;2022-10-16T14:44:42;20.90;99.90
22635;DHT22;11484;50.858;4.384;2022-10-16T14:47:13;20.80;99.90
22635;DHT22;11484;50.858;4.384;2022-10-16T14:49:41;20.70;99.90
22635;DHT22;11484;50.858;4.384;2022-10-16T14:52:13;20.70;99.90
22635;DHT22;11484;50.858;4.384;2022-10-16T14:54:39;20.70;99.90
22635;DHT22;11484;50.858;4.384;2022-10-16T14:57:12;20.80;99.90
22635;DHT22;11484;50.858;4.384;2022-10-16T14:59:41;20.70;99.90
22635;DHT22;11484;50.858;4.384;2022-10-16T15:04:48;20.50;99.90
22635;DHT22;11484;50.858;4.384;2022-10-16T15:07:14;20.50;99.90
22635;DHT22;11484;50.858;4.384;2022-10-16T15:09:40;20.40;99.90
22635;DHT22;11484;50.858;4.384;2022-10-16T15:12:06;20.40;99.90
22635;DHT22;11484;50.858;4.384;2022-10-16T15:14:31;20.60;99.90
22635;DHT22;11484;50.858;4.384;2022-10-16T15:16:57;20.70;99.90
22635;DHT22;11484;50.858;4.384;2022-10-16T15:19:23;20.60;99.90
22635;DHT22;11484;50.858;4.384;2022-10-16T15:21:49;20.60;99.90
22635;DHT22;11484;50.858;4.384;2022-10-16T15:24:15;20.50;99.90
22635;DHT22;11484;50.858;4.384;2022-10-16T15:26:40;20.50;99.90
22635;DHT22;11484;50.858;4.384;2022-10-16T15:29:07;20.50;99.90
22635;DHT22;11484;50.858;4.384;2022-10-16T15:31:33;20.50;99.90
22635;DHT22;11484;50.858;4.384;2022-10-16T15:33:59;20.40;99.90
22635;DHT22;11484;50.858;4.384;2022-10-16T15:36:31;20.40;99.90
22635;DHT22;11484;50.858;4.384;2022-10-16T15:38:59;20.30;99.90
22635;DHT22;11484;50.858;4.384;2022-10-16T15:41:25;20.30;99.90
22635;DHT22;11484;50.858;4.384;2022-10-16T15:43:51;20.20;99.90
22635;DHT22;11484;50.858;4.384;2022-10-16T15:46:19;20.20;99.90
22635;DHT22;11484;50.858;4.384;2022-10-16T15:48:46;20.10;99.90
22635;DHT22;11484;50.858;4.384;2022-10-16T15:51:14;20.00;99.90
22635;DHT22;11484;50.858;4.384;2022-10-16T15:53:40;19.90;99.90
22635;DHT22;11484;50.858;4.384;2022-10-16T15:56:07;19.90;99.90
22635;DHT22;11484;50.858;4.384;2022-10-16T15:58:34;19.90;99.90
22635;DHT22;11484;50.858;4.384;2022-10-16T16:01:01;19.80;99.90
22635;DHT22;11484;50.858;4.384;2022-10-16T16:03:27;19.90;99.90
22635;DHT22;11484;50.858;4.384;2022-10-16T16:05:54;19.80;99.90
22635;DHT22;11484;50.858;4.384;2022-10-16T16:08:20;19.70;99.90
22635;DHT22;11484;50.858;4.384;2022-10-16T16:10:45;19.70;99.90
22635;DHT22;11484;50.858;4.384;2022-10-16T16:13:11;19.70;99.90
22635;DHT22;11484;50.858;4.384;2022-10-16T16:15:40;19.60;99.90
22635;DHT22;11484;50.858;4.384;2022-10-16T16:18:06;19.50;99.90
22635;DHT22;11484;50.858;4.384;2022-10-16T16:20:32;19.40;99.90
22635;DHT22;11484;50.858;4.384;2022-10-16T16:22:57;19.40;99.90
22635;DHT22;11484;50.858;4.384;2022-10-16T16:25:23;19.40;99.90
22635;DHT22;11484;50.858;4.384;2022-10-16T16:27:49;19.40;99.90
22635;DHT22;11484;50.858;4.384;2022-10-16T16:30:15;19.50;99.90
22635;DHT22;11484;50.858;4.384;2022-10-16T16:32:40;19.50;99.90
22635;DHT22;11484;50.858;4.384;2022-10-16T16:35:10;19.50;99.90
22635;DHT22;11484;50.858;4.384;2022-10-16T16:37:35;19.40;99.90
22635;DHT22;11484;50.858;4.384;2022-10-16T16:40:01;19.40;99.90
22635;DHT22;11484;50.858;4.384;2022-10-16T16:42:28;19.40;99.90
22635;DHT22;11484;50.858;4.384;2022-10-16T16:44:53;19.40;99.90
22635;DHT22;11484;50.858;4.384;2022-10-16T16:47:19;19.40;99.90
22635;DHT22;11484;50.858;4.384;2022-10-16T16:49:45;19.40;99.90
22635;DHT22;11484;50.858;4.384;2022-10-16T16:52:12;19.30;99.90
22635;DHT22;11484;50.858;4.384;2022-10-16T16:54:38;19.30;99.90
22635;DHT22;11484;50.858;4.384;2022-10-16T16:57:04;19.30;99.90
22635;DHT22;11484;50.858;4.384;2022-10-16T16:59:30;19.30;99.90
22635;DHT22;11484;50.858;4.384;2022-10-16T17:02:01;19.40;99.90
22635;DHT22;11484;50.858;4.384;2022-10-16T17:04:27;19.50;99.90
22635;DHT22;11484;50.858;4.384;2022-10-16T17:06:54;19.50;99.90
22635;DHT22;11484;50.858;4.384;2022-10-16T17:09:21;19.50;99.90
22635;DHT22;11484;50.858;4.384;2022-10-16T17:11:48;19.40;99.90
22635;DHT22;11484;50.858;4.384;2022-10-16T17:14:14;19.40;99.90
22635;DHT22;11484;50.858;4.384;2022-10-16T17:16:42;19.30;99.90
22635;DHT22;11484;50.858;4.384;2022-10-16T17:19:15;19.30;99.90
22635;DHT22;11484;50.858;4.384;2022-10-16T17:21:43;19.20;99.90
22635;DHT22;11484;50.858;4.384;2022-10-16T17:24:08;19.10;99.90